No se requiere un especial cuidado respecto a la situación meteorológica.   -   No hay avisos

Informes METAR

 

LEZL - Sevilla, Spain
Distancia de la estación: ENE 8km
Actualización: 25/04/2015 20:00
Poco nuboso
Poco nuboso
 Viento de SO
Viento: SO 20 km/h
Temperatura: 19°C
Rocío: 14°C
Humedad: 73%
Barómetro: 1015 hPa
Nubes: Poco nuboso
Visibilidad: 10 km
Detalles de las nubes: Poco nuboso 853 m
2015/04/25 18:00 LEZL 251800Z 22011KT 190V250 9999 FEW028 19/14 Q1015 NOSIG
LEMO - Morón, Spain
Distancia de la estación: SE 43km
Actualización: 25/04/2015 20:00
Parcialmente nuboso
Parcialmente nuboso
 Viento de O
Viento: O 15 km/h
Temperatura: 19°C
Rocío: 14°C
Humedad: 73%
Barómetro: 1015 hPa
Nubes: Parcialmente nuboso
Visibilidad: 10 km
Detalles de las nubes: Poco nuboso 914 m
Parcialmente nuboso 1524 m
2015/04/25 18:00 LEMO 251800Z 26008KT 9999 FEW030 SCT050 19/14 Q1015 NOSIG
LEJR - Jeréz, Spain
Distancia de la estación: S 71km
Actualización: 25/04/2015 20:00
Parcialmente nuboso
Parcialmente nuboso
 Viento de SO
Viento: SO 15 km/h
Temperatura: 18°C
Rocío: 15°C
Humedad: 83%
Barómetro: 1016 hPa
Nubes: Parcialmente nuboso
Visibilidad: 10 km
Detalles de las nubes: Parcialmente nuboso 671 m
2015/04/25 18:00 LEJR 251800Z 23008KT 9999 SCT022 18/15 Q1016
 
LERT - Rota, Spain
Distancia de la estación: SSO 89km
Actualización: 25/04/2015 20:00
Parcialmente nuboso
Parcialmente nuboso
 Viento de SO
Viento: SO 19 km/h
Temperatura: 18°C
Rocío: 15°C
Humedad: 83%
Barómetro: 1016 hPa
Nubes: Parcialmente nuboso
Visibilidad: 10 km
Detalles de las nubes: Poco nuboso 366 m
Parcialmente nuboso 914 m
2015/04/25 18:00 LERT 251800Z 22010KT 9999 FEW012 SCT030 18/15 Q1016 NOSIG
LEMG - Málaga, Spain
Distancia de la estación: ESE 157km
Actualización: 25/04/2015 20:00
Poco nuboso
Poco nuboso
 Viento de NO
Viento: NO 15 km/h
Temperatura: 23°C
Rocío: 12°C
Humedad: 50%
Barómetro: 1013 hPa
Nubes: Poco nuboso
Visibilidad: 10 km
Detalles de las nubes: Poco nuboso 762 m
2015/04/25 18:00 LEMG 251800Z 32008KT 9999 FEW025 23/12 Q1013 NOSIG
LEBA - Córdoba, Spain
Distancia de la estación: ENE 115km
Actualización: 25/04/2015 20:00
Poco nuboso
Poco nuboso
 Viento de OSO
Viento: OSO 15 km/h
Temperatura: 19°C
Rocío: 14°C
Humedad: 73%
Barómetro: 1015 hPa
Nubes: Poco nuboso
Visibilidad: 10 km
Detalles de las nubes: Poco nuboso 975 m
2015/04/25 18:00 LEBA 251800Z 24008KT 210V270 9999 FEW032 19/14 Q1015
 
LEGR - Granada, Spain
Distancia de la estación: E 198km
Actualización: 25/04/2015 20:00
Parcialmente nuboso
Parcialmente nuboso
 Viento de ONO
Viento: ONO 11 km/h
Temperatura: 19°C
Rocío: 10°C
Humedad: 56%
Barómetro: 1015 hPa
Nubes: Parcialmente nuboso
Visibilidad: 10 km
Detalles de las nubes: Poco nuboso 1524 m
Parcialmente nuboso 3353 m
2015/04/25 18:00 LEGR 251800Z 29006KT 250V340 9999 FEW050 SCT110 19/10 Q1015
LEAM - Almería, Spain
Distancia de la estación: E 326km
Actualización: 25/04/2015 20:00
Poco nuboso
Poco nuboso
 Viento de S
Viento: S 6 km/h
Temperatura: 18°C
Rocío: 16°C
Humedad: 88%
Barómetro: 1013 hPa
Nubes: Poco nuboso
Visibilidad: 10 km
Detalles de las nubes: Poco nuboso 244 m
2015/04/25 18:00 LEAM 251800Z 17003KT 140V200 9999 FEW008 18/16 Q1013
LEMD - Madrid/Barajas, Spain
Distancia de la estación: NNE 402km
Actualización: 25/04/2015 20:00
Muy nuboso
Muy nuboso
 Viento de SO
Viento: SO 19 km/h, Racha: 37 km/h
Temperatura: 18°C
Rocío: 8°C
Humedad: 52%
Barómetro: 1013 hPa
Nubes: Muy nuboso
Visibilidad: 10 km
Detalles de las nubes: Muy nuboso 2134 m
2015/04/25 18:00 LEMD 251800Z 23010G20KT 9999 BKN070 18/08 Q1013 NOSIG
 
LEVD - Valladolid, Spain
Distancia de la estación: N 492km
Actualización: 25/04/2015 20:00
Tormenta cercana, Muy nuboso
Tormenta cercana, Muy nuboso
 Viento de SSO
Viento: SSO 11 km/h
Temperatura: 14°C
Rocío: 11°C
Humedad: 82%
Barómetro: 1012 hPa
Resumen: Nearby Thunderstorm
Nubes: Muy nuboso
Visibilidad: 8 km
Detalles de las nubes: Parcialmente nuboso 610 m
Muy nuboso 1219 m
2015/04/25 18:00 LEVD 251800Z 20006KT 8000 VCTS SCT020CB BKN040 14/11 Q1012
LEBL - Barcelona, Spain
Distancia de la estación: NE 816km
Actualización: 25/04/2015 20:00
Parcialmente nuboso
Parcialmente nuboso
 Viento de SO
Viento: SO 20 km/h
Temperatura: 18°C
Rocío: 15°C
Humedad: 83%
Barómetro: 1012 hPa
Nubes: Parcialmente nuboso
Visibilidad: 6 km
Detalles de las nubes: Poco nuboso 274 m
Parcialmente nuboso 914 m
2015/04/25 18:00 LEBL 251800Z 22011KT 6000 FEW009 SCT030 18/15 Q1012 NOSIG
LEVC - Valencia, Spain
Distancia de la estación: ENE 535km
Actualización: 25/04/2015 20:00
Poco nuboso
Poco nuboso
 Viento de ONO
Viento: ONO 17 km/h
Temperatura: 25°C
Rocío: 8°C
Humedad: 34%
Barómetro: 1011 hPa
Nubes: Poco nuboso
Visibilidad: 10 km
Detalles de las nubes: Poco nuboso 671 m
2015/04/25 18:00 LEVC 251800Z 30009KT 9999 FEW022 25/08 Q1011 NOSIG